createdAt,value
2023-04-21T00:03:27.681Z,100742.81
2023-04-21T00:08:29.397Z,100738.38
2023-04-21T00:13:30.969Z,100740.66
2023-04-21T00:18:33.245Z,100732.47
2023-04-21T00:23:35.494Z,100731.81
2023-04-21T00:28:37.029Z,100724.31
2023-04-21T00:33:39.095Z,100726.44
2023-04-21T00:38:40.609Z,100726.28
2023-04-21T00:44:06.289Z,100717.13
2023-04-21T00:49:07.922Z,100719.06
2023-04-21T00:54:12.473Z,100721.16
2023-04-21T00:59:14.889Z,100717.25
2023-04-21T01:04:16.468Z,100709.59
2023-04-21T01:09:18.551Z,100706.81
2023-04-21T01:14:20.290Z,100706.00
2023-04-21T01:19:21.914Z,100703.50
2023-04-21T01:24:24.470Z,100706.94
2023-04-21T01:29:25.969Z,100712.00
2023-04-21T01:34:28.761Z,100704.47
2023-04-21T01:39:30.295Z,100710.06
2023-04-21T01:44:31.905Z,100723.78
2023-04-21T01:49:33.531Z,100722.66
2023-04-21T01:54:35.524Z,100731.66
2023-04-21T01:59:37.503Z,100735.72
2023-04-21T02:04:39.197Z,100718.50
2023-04-21T02:09:41.228Z,100720.94
2023-04-21T02:14:42.838Z,100713.66
2023-04-21T02:19:44.386Z,100719.09
2023-04-21T02:24:45.925Z,100712.94
2023-04-21T02:29:47.517Z,100714.88
2023-04-21T02:34:49.005Z,100704.72
2023-04-21T02:39:50.515Z,100699.69
2023-04-21T02:44:52.078Z,100712.19
2023-04-21T02:49:53.590Z,100712.69
2023-04-21T02:54:55.108Z,100719.19
2023-04-21T02:59:56.679Z,100718.06
2023-04-21T03:04:58.210Z,100713.78
2023-04-21T03:09:59.839Z,100716.19
2023-04-21T03:15:02.523Z,100714.88
2023-04-21T03:20:04.465Z,100711.44
2023-04-21T03:25:06.487Z,100720.28
2023-04-21T03:30:08.522Z,100719.84
2023-04-21T03:35:10.162Z,100718.97
2023-04-21T03:40:11.720Z,100717.34
2023-04-21T03:45:13.313Z,100716.47
2023-04-21T03:50:14.889Z,100718.44
2023-04-21T03:55:16.569Z,100716.59
2023-04-21T04:00:18.168Z,100710.09
2023-04-21T04:05:20.060Z,100722.84
2023-04-21T04:10:21.628Z,100709.41
2023-04-21T04:15:23.167Z,100718.88
2023-04-21T04:20:24.696Z,100709.50
2023-04-21T04:25:27.367Z,100718.16
2023-04-21T04:30:29.241Z,100718.69
2023-04-21T04:35:30.798Z,100711.78
2023-04-21T04:40:32.354Z,100713.25
2023-04-21T04:45:33.848Z,100706.09
2023-04-21T04:50:35.391Z,100710.00
2023-04-21T04:55:36.905Z,100718.63
2023-04-21T05:00:38.567Z,100716.06
2023-04-21T05:05:40.136Z,100722.44
2023-04-21T05:10:41.685Z,100726.19
2023-04-21T05:15:43.189Z,100732.38
2023-04-21T05:20:44.680Z,100724.91
2023-04-21T05:25:46.728Z,100731.59
2023-04-21T05:30:48.349Z,100732.72
2023-04-21T05:35:49.853Z,100750.16
2023-04-21T05:40:57.485Z,100744.28
2023-04-21T05:46:00.233Z,100745.41
2023-04-21T05:51:14.314Z,100747.88
2023-04-21T05:56:15.889Z,100756.84
2023-04-21T06:01:17.434Z,100757.50
2023-04-21T06:06:18.955Z,100743.38
2023-04-21T06:11:20.450Z,100742.59
2023-04-21T06:16:22.025Z,100735.44
2023-04-21T06:21:23.592Z,100741.78
2023-04-21T06:26:25.125Z,100744.03
2023-04-21T06:31:26.671Z,100733.53
2023-04-21T06:36:28.337Z,100730.22
2023-04-21T06:41:29.844Z,100738.25
2023-04-21T06:46:31.449Z,100744.63
2023-04-21T06:51:32.976Z,100737.97
2023-04-21T06:56:34.558Z,100743.06
2023-04-21T07:01:36.107Z,100734.31
2023-04-21T07:06:37.704Z,100741.28
2023-04-21T07:11:39.236Z,100739.72
2023-04-21T07:16:40.768Z,100735.50
2023-04-21T07:21:42.274Z,100742.47
2023-04-21T07:26:43.875Z,100733.19
2023-04-21T07:31:45.417Z,100733.31
2023-04-21T07:36:47.111Z,100741.56
2023-04-21T07:41:48.634Z,100741.97
2023-04-21T07:46:50.193Z,100734.44
2023-04-21T07:51:51.814Z,100737.59
2023-04-21T07:56:53.463Z,100738.84
2023-04-21T08:01:54.993Z,100747.00
2023-04-21T08:06:56.795Z,100743.88
2023-04-21T08:11:58.415Z,100737.44
2023-04-21T08:17:01.160Z,100735.50
2023-04-21T08:22:02.914Z,100732.03
2023-04-21T08:27:04.498Z,100732.16
2023-04-21T08:32:06.126Z,100754.47
2023-04-21T08:37:07.730Z,100739.69
2023-04-21T08:42:09.689Z,100731.25
2023-04-21T08:47:12.348Z,100740.06
2023-04-21T08:52:13.914Z,100725.38
2023-04-21T08:57:16.309Z,100734.75
2023-04-21T09:02:22.277Z,100735.56
2023-04-21T09:07:35.534Z,100735.66
2023-04-21T09:12:39.408Z,100731.66
2023-04-21T09:17:41.042Z,100733.94
2023-04-21T09:22:42.620Z,100729.09
2023-04-21T09:27:44.211Z,100737.47
2023-04-21T09:32:45.859Z,100726.81
2023-04-21T09:37:47.534Z,100717.94
2023-04-21T09:42:49.057Z,100716.63
2023-04-21T09:47:50.974Z,100699.03
2023-04-21T09:52:54.664Z,100689.47
2023-04-21T09:57:59.330Z,100697.16
2023-04-21T10:03:05.728Z,100688.78
2023-04-21T10:08:08.196Z,100687.91
2023-04-21T10:13:14.775Z,100683.94
2023-04-21T10:18:17.539Z,100667.91
2023-04-21T10:23:32.489Z,100663.75
2023-04-21T10:28:58.868Z,100669.06
2023-04-21T10:34:06.491Z,100651.59
2023-04-21T10:39:08.086Z,100644.63
2023-04-21T10:44:09.511Z,100641.94
2023-04-21T10:49:22.845Z,100630.72
2023-04-21T10:54:25.699Z,100623.72
2023-04-21T10:59:27.445Z,100603.47
2023-04-21T11:04:30.713Z,100594.03
2023-04-21T11:09:32.784Z,100594.00
2023-04-21T11:14:36.531Z,100581.25
2023-04-21T11:19:38.685Z,100570.38
2023-04-21T11:24:44.823Z,100562.13
2023-04-21T11:29:46.726Z,100547.03
2023-04-21T11:34:48.346Z,100548.06
2023-04-21T11:39:49.868Z,100540.97
2023-04-21T11:44:54.885Z,100536.66
2023-04-21T11:49:58.425Z,100537.34
2023-04-21T11:55:05.690Z,100517.41
2023-04-21T12:00:10.380Z,100521.72
2023-04-21T12:05:13.500Z,100520.59
2023-04-21T12:10:19.190Z,100502.31
2023-04-21T12:15:21.973Z,100497.75
2023-04-21T12:20:25.776Z,100497.94
2023-04-21T12:25:27.274Z,100492.50
2023-04-21T12:30:28.803Z,100490.75
2023-04-21T12:35:30.319Z,100492.78
2023-04-21T12:40:32.627Z,100480.25
2023-04-21T12:45:34.285Z,100491.72
2023-04-21T12:50:35.811Z,100461.81
2023-04-21T12:55:37.434Z,100475.91
2023-04-21T13:00:38.941Z,100465.41
2023-04-21T13:05:40.474Z,100458.28
2023-04-21T13:10:42.000Z,100457.91
2023-04-21T13:15:43.600Z,100465.28
2023-04-21T13:20:45.128Z,100461.00
2023-04-21T13:25:46.769Z,100445.47
2023-04-21T13:30:49.284Z,100419.00
2023-04-21T13:35:50.854Z,100428.28
2023-04-21T13:40:52.380Z,100425.00
2023-04-21T13:45:53.987Z,100412.25
2023-04-21T13:50:55.566Z,100416.63
2023-04-21T13:55:57.359Z,100415.25
2023-04-21T14:00:58.886Z,100411.66
2023-04-21T14:06:00.460Z,100408.03
2023-04-21T14:11:03.431Z,100398.03
2023-04-21T14:16:05.330Z,100388.41
2023-04-21T14:21:07.935Z,100382.09
2023-04-21T14:26:09.474Z,100373.09
2023-04-21T14:31:11.065Z,100367.19
2023-04-21T14:36:12.674Z,100341.44
2023-04-21T14:41:14.252Z,100340.22
2023-04-21T14:46:15.846Z,100342.38
2023-04-21T14:51:17.406Z,100333.84
2023-04-21T14:56:19.022Z,100331.41
2023-04-21T15:01:21.682Z,100334.84
2023-04-21T15:06:25.064Z,100334.97
2023-04-21T15:11:26.674Z,100316.34
2023-04-21T15:16:28.299Z,100311.13
2023-04-21T15:21:30.259Z,100312.47
2023-04-21T15:26:31.787Z,100301.50
2023-04-21T15:31:33.650Z,100288.84
2023-04-21T15:36:35.313Z,100289.47
2023-04-21T15:41:36.858Z,100283.81
2023-04-21T15:46:38.512Z,100262.56
2023-04-21T15:51:40.870Z,100271.69
2023-04-21T15:56:42.507Z,100258.06
2023-04-21T16:01:44.214Z,100257.59
2023-04-21T16:06:45.892Z,100253.91
2023-04-21T16:11:48.373Z,100238.03
2023-04-21T16:16:49.955Z,100242.78
2023-04-21T16:21:51.675Z,100231.59
2023-04-21T16:26:53.230Z,100244.78
2023-04-21T16:31:54.902Z,100236.16
2023-04-21T16:36:56.468Z,100230.88
2023-04-21T16:41:57.990Z,100234.47
2023-04-21T16:46:59.562Z,100220.97
2023-04-21T16:52:01.122Z,100223.31
2023-04-21T16:57:02.864Z,100222.97
2023-04-21T17:02:04.539Z,100214.72
2023-04-21T17:07:06.462Z,100215.19
2023-04-21T17:12:08.010Z,100210.31
2023-04-21T17:17:09.720Z,100211.03
2023-04-21T17:22:11.342Z,100196.72
2023-04-21T17:27:12.952Z,100199.03
2023-04-21T17:32:14.597Z,100193.75
2023-04-21T17:37:16.314Z,100186.84
2023-04-21T17:42:17.873Z,100195.97
2023-04-21T17:47:19.419Z,100198.09
2023-04-21T17:52:21.021Z,100203.72
2023-04-21T17:57:23.358Z,100200.97
2023-04-21T18:02:24.967Z,100201.81
2023-04-21T18:07:26.598Z,100195.94
2023-04-21T18:12:28.115Z,100210.31
2023-04-21T18:17:29.711Z,100201.19
2023-04-21T18:22:32.325Z,100198.84
2023-04-21T18:27:33.824Z,100214.00
2023-04-21T18:32:36.252Z,100219.78
2023-04-21T18:37:37.773Z,100238.97
2023-04-21T18:42:39.335Z,100262.81
2023-04-21T18:47:41.659Z,100308.91
2023-04-21T18:52:43.301Z,100313.72
2023-04-21T18:57:44.835Z,100318.53
2023-04-21T19:02:46.772Z,100341.56
2023-04-21T19:07:48.345Z,100335.94
2023-04-21T19:12:49.897Z,100351.28
2023-04-21T19:17:51.707Z,100318.91
2023-04-21T19:22:53.277Z,100314.03
2023-04-21T19:27:54.819Z,100302.28
2023-04-21T19:32:57.257Z,100288.06
2023-04-21T19:37:58.899Z,100281.56
2023-04-21T19:43:00.424Z,100277.69
2023-04-21T19:48:01.970Z,100277.09
2023-04-21T19:53:03.833Z,100278.50
2023-04-21T19:58:05.364Z,100267.22
2023-04-21T20:03:07.168Z,100264.69
2023-04-21T20:08:08.826Z,100256.63
2023-04-21T20:13:12.082Z,100261.75
2023-04-21T20:18:13.949Z,100262.97
2023-04-21T20:23:15.736Z,100263.75
2023-04-21T20:28:17.262Z,100263.56
2023-04-21T20:33:18.787Z,100268.19
2023-04-21T20:38:20.295Z,100260.72
2023-04-21T20:43:21.883Z,100272.03
2023-04-21T20:48:23.378Z,100275.47
2023-04-21T20:53:25.040Z,100273.88
2023-04-21T20:58:26.596Z,100263.34
2023-04-21T21:03:28.379Z,100259.88
2023-04-21T21:08:30.172Z,100263.50
2023-04-21T21:13:32.108Z,100265.88
2023-04-21T21:18:33.647Z,100270.94
2023-04-21T21:23:35.208Z,100262.03
2023-04-21T21:28:36.726Z,100256.84
2023-04-21T21:33:38.248Z,100252.81
2023-04-21T21:38:39.891Z,100253.94
2023-04-21T21:43:41.416Z,100262.13
2023-04-21T21:48:42.989Z,100263.44
2023-04-21T21:53:44.569Z,100258.84
2023-04-21T21:58:50.151Z,100253.81
2023-04-21T22:03:51.847Z,100244.50
2023-04-21T22:08:53.548Z,100242.81
2023-04-21T22:13:55.051Z,100236.41
2023-04-21T22:18:56.662Z,100237.66
2023-04-21T22:23:58.200Z,100239.47
2023-04-21T22:28:59.822Z,100245.13
2023-04-21T22:34:01.479Z,100246.06
2023-04-21T22:39:03.053Z,100253.84
2023-04-21T22:44:04.728Z,100246.84
2023-04-21T22:49:06.618Z,100255.06
2023-04-21T22:54:08.134Z,100246.84
2023-04-21T22:59:09.755Z,100238.81
2023-04-21T23:04:11.398Z,100233.22
2023-04-21T23:09:13.037Z,100242.31
2023-04-21T23:14:14.679Z,100244.75
2023-04-21T23:19:16.175Z,100248.25
2023-04-21T23:24:17.723Z,100255.13
2023-04-21T23:29:19.283Z,100243.66
2023-04-21T23:34:20.802Z,100248.56
2023-04-21T23:39:22.317Z,100231.56
2023-04-21T23:44:24.060Z,100237.38
2023-04-21T23:49:25.566Z,100240.09
2023-04-21T23:54:27.144Z,100234.50
2023-04-21T23:59:28.667Z,100235.03
